createdAt,value
2017-05-30T00:00:47.682Z,0
2017-05-30T00:01:49.306Z,0
2017-05-30T00:02:50.977Z,0
2017-05-30T00:03:52.619Z,0
2017-05-30T00:04:54.243Z,0
2017-05-30T00:05:55.935Z,0
2017-05-30T00:06:57.601Z,0
2017-05-30T00:07:59.278Z,0
2017-05-30T00:09:00.924Z,0
2017-05-30T00:10:02.557Z,0
2017-05-30T00:11:04.220Z,0
2017-05-30T00:12:05.886Z,0
2017-05-30T00:13:07.566Z,0
2017-05-30T00:14:09.253Z,0
2017-05-30T00:15:10.922Z,0
2017-05-30T00:16:12.584Z,0
2017-05-30T00:17:14.230Z,0
2017-05-30T00:18:15.917Z,0
2017-05-30T00:19:57.086Z,0
2017-05-30T00:21:38.269Z,0
2017-05-30T00:22:39.905Z,0
2017-05-30T00:23:41.603Z,0
2017-05-30T00:24:43.202Z,0
2017-05-30T00:25:44.892Z,0
2017-05-30T00:26:46.675Z,0
2017-05-30T00:27:48.324Z,0
2017-05-30T00:28:49.977Z,0
2017-05-30T00:29:51.611Z,0
2017-05-30T00:30:53.327Z,0
2017-05-30T00:31:55.027Z,0
2017-05-30T00:32:56.640Z,0
2017-05-30T00:33:58.335Z,0
2017-05-30T00:34:59.980Z,0
2017-05-30T00:36:01.623Z,0
2017-05-30T00:37:03.285Z,0
2017-05-30T00:38:04.946Z,0
2017-05-30T00:39:06.612Z,0
2017-05-30T00:40:08.258Z,0
2017-05-30T00:41:09.996Z,0
2017-05-30T00:42:11.760Z,0
2017-05-30T00:43:13.457Z,0
2017-05-30T00:44:15.187Z,0
2017-05-30T00:45:16.879Z,0
2017-05-30T00:46:18.607Z,0
2017-05-30T00:47:20.382Z,0
2017-05-30T00:48:22.040Z,0
2017-05-30T00:49:23.761Z,0
2017-05-30T00:50:25.466Z,0
2017-05-30T00:51:27.140Z,0
2017-05-30T00:52:28.905Z,0
2017-05-30T00:53:30.564Z,0
2017-05-30T00:54:32.291Z,0
2017-05-30T00:55:34.214Z,0
2017-05-30T00:56:35.898Z,0
2017-05-30T00:57:37.624Z,0
2017-05-30T00:58:39.340Z,0
2017-05-30T00:59:40.983Z,0
2017-05-30T01:00:42.743Z,0
2017-05-30T01:01:44.440Z,0
2017-05-30T01:02:46.166Z,0
2017-05-30T01:04:27.399Z,0
2017-05-30T01:06:08.617Z,0
2017-05-30T01:07:10.347Z,0
2017-05-30T01:08:12.090Z,0
2017-05-30T01:09:13.855Z,0
2017-05-30T01:10:15.535Z,0
2017-05-30T01:11:17.290Z,0
2017-05-30T01:12:18.970Z,0
2017-05-30T01:13:20.610Z,0
2017-05-30T01:14:22.268Z,0
2017-05-30T01:15:24.006Z,0
2017-05-30T01:16:25.739Z,0
2017-05-30T01:17:27.466Z,0
2017-05-30T01:18:29.249Z,0
2017-05-30T01:19:30.924Z,0
2017-05-30T01:20:32.653Z,0
2017-05-30T01:21:34.361Z,0
2017-05-30T01:22:36.080Z,0
2017-05-30T01:23:37.828Z,0
2017-05-30T01:24:39.535Z,0
2017-05-30T01:25:41.225Z,0
2017-05-30T01:26:42.871Z,0
2017-05-30T01:27:45.401Z,0
2017-05-30T01:28:46.360Z,0
2017-05-30T01:29:48.074Z,0
2017-05-30T01:30:49.755Z,0
2017-05-30T01:31:51.409Z,0
2017-05-30T01:32:53.109Z,0
2017-05-30T01:33:54.798Z,0
2017-05-30T01:34:56.458Z,0
2017-05-30T01:35:58.152Z,0
2017-05-30T01:36:59.855Z,0
2017-05-30T01:38:01.591Z,0
2017-05-30T01:39:03.309Z,0
2017-05-30T01:40:04.994Z,0
2017-05-30T01:41:06.642Z,0
2017-05-30T01:42:08.290Z,0
2017-05-30T01:43:09.959Z,0
2017-05-30T01:44:11.683Z,0
2017-05-30T01:45:13.323Z,0
2017-05-30T01:46:14.968Z,0
2017-05-30T01:47:16.642Z,0
2017-05-30T01:48:18.327Z,0
2017-05-30T01:49:19.959Z,0
2017-05-30T01:50:21.597Z,0
2017-05-30T01:51:23.248Z,0
2017-05-30T01:52:24.943Z,0
2017-05-30T01:53:26.677Z,0
2017-05-30T01:54:28.374Z,0
2017-05-30T01:55:30.327Z,0
2017-05-30T01:56:32.008Z,0
2017-05-30T01:57:33.706Z,0
2017-05-30T01:58:35.416Z,0
2017-05-30T01:59:37.061Z,0
2017-05-30T02:00:38.730Z,0
2017-05-30T02:01:40.360Z,0
2017-05-30T02:02:42.030Z,0
2017-05-30T02:03:43.710Z,0
2017-05-30T02:04:45.309Z,0
2017-05-30T02:05:47.036Z,0
2017-05-30T02:06:48.710Z,0
2017-05-30T02:07:50.372Z,0
2017-05-30T02:08:52.068Z,0
2017-05-30T02:09:53.994Z,0
2017-05-30T02:10:55.628Z,0
2017-05-30T02:11:57.269Z,0
2017-05-30T02:12:58.944Z,0
2017-05-30T02:14:00.627Z,0
2017-05-30T02:15:41.791Z,0
2017-05-30T02:17:22.994Z,0
2017-05-30T02:19:04.151Z,0
2017-05-30T02:20:05.770Z,0
2017-05-30T02:21:07.678Z,0
2017-05-30T02:22:09.342Z,0
2017-05-30T02:23:10.984Z,0
2017-05-30T02:24:12.678Z,0
2017-05-30T02:25:14.330Z,0
2017-05-30T02:26:16.192Z,0
2017-05-30T02:27:17.877Z,0
2017-05-30T02:28:19.531Z,0
2017-05-30T02:29:21.258Z,0
2017-05-30T02:30:22.931Z,0
2017-05-30T02:31:24.574Z,0
2017-05-30T02:32:26.320Z,0
2017-05-30T02:33:27.954Z,0
2017-05-30T02:34:29.560Z,0
2017-05-30T02:35:31.216Z,0
2017-05-30T02:36:32.922Z,0
2017-05-30T02:37:34.607Z,0
2017-05-30T02:38:36.315Z,0
2017-05-30T02:39:37.966Z,0
2017-05-30T02:40:39.639Z,0
2017-05-30T02:41:41.307Z,0
2017-05-30T02:42:43.063Z,0
2017-05-30T02:43:44.702Z,0
2017-05-30T02:44:46.347Z,0
2017-05-30T02:45:48.007Z,4
2017-05-30T02:46:49.666Z,4
2017-05-30T02:47:51.422Z,4
2017-05-30T02:48:53.092Z,4
2017-05-30T02:49:54.729Z,8
2017-05-30T02:50:56.355Z,4
2017-05-30T02:51:58.082Z,8
2017-05-30T02:53:39.803Z,12
2017-05-30T02:54:41.497Z,12
2017-05-30T02:55:43.171Z,16
2017-05-30T02:56:44.850Z,16
2017-05-30T02:57:46.504Z,20
2017-05-30T02:58:48.235Z,20
2017-05-30T02:59:49.912Z,24
2017-05-30T03:00:52.126Z,28
2017-05-30T03:01:53.863Z,28
2017-05-30T03:02:55.489Z,28
2017-05-30T03:03:57.124Z,28
2017-05-30T03:04:58.788Z,32
2017-05-30T03:06:00.442Z,36
2017-05-30T03:07:02.131Z,40
2017-05-30T03:08:03.804Z,36
2017-05-30T03:09:05.567Z,40
2017-05-30T03:10:07.325Z,40
2017-05-30T03:11:08.973Z,40
2017-05-30T03:12:10.639Z,36
2017-05-30T03:13:12.570Z,40
2017-05-30T03:14:14.256Z,44
2017-05-30T03:15:15.976Z,48
2017-05-30T03:16:17.635Z,52
2017-05-30T03:17:19.302Z,60
2017-05-30T03:18:20.910Z,60
2017-05-30T03:19:22.579Z,68
2017-05-30T03:20:24.379Z,68
2017-05-30T03:21:26.058Z,68
2017-05-30T03:22:27.732Z,68
2017-05-30T03:23:29.366Z,64
2017-05-30T03:24:32.119Z,64
2017-05-30T03:25:33.764Z,64
2017-05-30T03:27:14.941Z,68
2017-05-30T03:28:56.107Z,88
2017-05-30T03:30:37.351Z,116
2017-05-30T03:31:38.960Z,136
2017-05-30T03:32:40.592Z,160
2017-05-30T03:33:42.314Z,180
2017-05-30T03:34:43.938Z,200
2017-05-30T03:35:45.589Z,220
2017-05-30T03:36:47.262Z,240
2017-05-30T03:37:49.751Z,260
2017-05-30T03:38:51.500Z,284
2017-05-30T03:39:53.878Z,308
2017-05-30T03:40:55.571Z,328
2017-05-30T03:41:57.265Z,344
2017-05-30T03:42:58.986Z,364
2017-05-30T03:44:00.753Z,376
2017-05-30T03:45:03.541Z,392
2017-05-30T03:46:05.645Z,404
2017-05-30T03:47:08.429Z,420
2017-05-30T03:48:10.190Z,428
2017-05-30T03:49:11.962Z,440
2017-05-30T03:50:13.678Z,452
2017-05-30T03:51:15.364Z,468
2017-05-30T03:52:17.106Z,480
2017-05-30T03:53:18.816Z,500
2017-05-30T03:54:20.540Z,512
2017-05-30T03:55:22.252Z,528
2017-05-30T03:56:23.925Z,544
2017-05-30T03:57:25.662Z,556
2017-05-30T03:58:28.345Z,560
2017-05-30T03:59:31.069Z,572
2017-05-30T04:00:33.631Z,588
2017-05-30T04:01:36.172Z,600
2017-05-30T04:02:39.009Z,624
2017-05-30T04:03:40.662Z,648
2017-05-30T04:04:42.323Z,660
2017-05-30T04:05:44.023Z,676
2017-05-30T04:06:45.677Z,696
2017-05-30T04:07:47.352Z,724
2017-05-30T04:08:49.102Z,752
2017-05-30T04:09:50.755Z,800
2017-05-30T04:10:52.392Z,844
2017-05-30T04:11:54.129Z,876
2017-05-30T04:12:55.863Z,912
2017-05-30T04:13:58.691Z,928
2017-05-30T04:15:00.332Z,940
2017-05-30T04:16:01.996Z,980
2017-05-30T04:17:03.711Z,1060
2017-05-30T04:18:05.376Z,1148
2017-05-30T04:19:07.159Z,1196
2017-05-30T04:20:08.844Z,1188
2017-05-30T04:21:10.564Z,1152
2017-05-30T04:22:12.288Z,1188
2017-05-30T04:23:13.960Z,1624
2017-05-30T04:24:15.672Z,1680
2017-05-30T04:25:17.339Z,1784
2017-05-30T04:26:19.161Z,1628
2017-05-30T04:27:21.656Z,1444
2017-05-30T04:28:23.329Z,1540
2017-05-30T04:29:25.001Z,1696
2017-05-30T04:30:26.694Z,1768
2017-05-30T04:31:28.345Z,1804
2017-05-30T04:32:30.087Z,1864
2017-05-30T04:33:31.776Z,2024
2017-05-30T04:34:33.413Z,2240
2017-05-30T04:35:35.058Z,2260
2017-05-30T04:36:36.731Z,2132
2017-05-30T04:37:38.383Z,2040
2017-05-30T04:39:19.542Z,2224
2017-05-30T04:41:00.660Z,2528
2017-05-30T04:42:02.371Z,2684
2017-05-30T04:43:04.029Z,2864
2017-05-30T04:44:05.657Z,3116
2017-05-30T04:45:07.321Z,3400
2017-05-30T04:46:09.040Z,3476
2017-05-30T04:47:10.742Z,3284
2017-05-30T04:48:12.385Z,2888
2017-05-30T04:49:14.040Z,2584
2017-05-30T04:50:15.693Z,2332
2017-05-30T04:51:17.432Z,2212
2017-05-30T04:52:19.077Z,2120
2017-05-30T04:53:20.731Z,2128
2017-05-30T04:54:22.403Z,2300
2017-05-30T04:55:24.041Z,2584
2017-05-30T04:56:25.708Z,2856
2017-05-30T04:57:27.337Z,3044
2017-05-30T04:58:29.044Z,3232
2017-05-30T04:59:30.709Z,3492
2017-05-30T05:00:32.363Z,3824
2017-05-30T05:01:34.064Z,4188
2017-05-30T05:02:35.721Z,4704
2017-05-30T05:03:37.392Z,5544
2017-05-30T05:04:39.068Z,6512
2017-05-30T05:05:40.747Z,6828
2017-05-30T05:06:42.416Z,7836
2017-05-30T05:07:44.098Z,5976
2017-05-30T05:08:45.801Z,5292
2017-05-30T05:09:47.428Z,5700
2017-05-30T05:10:49.076Z,5104
2017-05-30T05:11:50.716Z,5120
2017-05-30T05:12:52.373Z,5760
2017-05-30T05:13:54.062Z,8000
2017-05-30T05:14:55.710Z,9676
2017-05-30T05:15:57.449Z,8712
2017-05-30T05:16:59.763Z,12028
2017-05-30T05:18:01.441Z,13348
2017-05-30T05:19:03.187Z,13584
2017-05-30T05:20:04.842Z,13184
2017-05-30T05:21:06.507Z,15840
2017-05-30T05:22:08.208Z,16544
2017-05-30T05:23:09.812Z,16480
2017-05-30T05:24:11.464Z,19200
2017-05-30T05:25:13.160Z,21024
2017-05-30T05:26:14.785Z,19840
2017-05-30T05:27:18.070Z,20832
2017-05-30T05:28:19.714Z,22464
2017-05-30T05:29:21.425Z,23712
2017-05-30T05:30:23.106Z,25280
2017-05-30T05:31:24.706Z,25536
2017-05-30T05:32:26.405Z,26592
2017-05-30T05:33:28.062Z,27680
2017-05-30T05:34:29.770Z,29152
2017-05-30T05:35:31.392Z,30016
2017-05-30T05:36:33.047Z,28896
2017-05-30T05:37:34.689Z,27968
2017-05-30T05:38:36.361Z,29216
2017-05-30T05:39:38.102Z,29472
2017-05-30T05:40:39.763Z,29472
2017-05-30T05:41:41.406Z,28640
2017-05-30T05:42:43.728Z,23648
2017-05-30T05:43:45.386Z,21376
2017-05-30T05:44:47.095Z,11940
2017-05-30T05:45:48.805Z,10808
2017-05-30T05:46:50.578Z,10024
2017-05-30T05:47:52.287Z,9600
2017-05-30T05:48:53.949Z,9368
2017-05-30T05:50:35.234Z,9932
2017-05-30T05:52:16.486Z,11652
2017-05-30T05:53:18.144Z,13652
2017-05-30T05:54:19.819Z,15424
2017-05-30T05:55:21.470Z,19840
2017-05-30T05:56:23.214Z,20064
2017-05-30T05:57:24.926Z,23616
2017-05-30T05:58:26.642Z,28416
2017-05-30T05:59:28.353Z,27936
2017-05-30T06:00:30.064Z,33760
2017-05-30T06:01:31.770Z,32768
2017-05-30T06:02:33.487Z,36960
2017-05-30T06:03:35.174Z,34176
2017-05-30T06:04:36.841Z,37408
2017-05-30T06:05:38.456Z,37600
2017-05-30T06:06:40.129Z,39680
2017-05-30T06:07:41.862Z,38464
2017-05-30T06:08:43.562Z,41312
2017-05-30T06:09:45.254Z,40288
2017-05-30T06:10:46.917Z,40640
2017-05-30T06:11:48.699Z,40352
2017-05-30T06:12:50.379Z,39296
2017-05-30T06:13:52.053Z,39552
2017-05-30T06:14:53.717Z,39232
2017-05-30T06:15:55.353Z,37920
2017-05-30T06:16:57.047Z,30496
2017-05-30T06:17:58.738Z,30400
2017-05-30T06:19:00.440Z,33760
2017-05-30T06:20:02.090Z,38944
2017-05-30T06:21:04.943Z,37312
2017-05-30T06:22:06.763Z,39104
2017-05-30T06:23:08.468Z,42496
2017-05-30T06:24:10.207Z,43616
2017-05-30T06:25:11.900Z,43008
2017-05-30T06:26:13.594Z,43776
2017-05-30T06:27:15.334Z,38912
2017-05-30T06:28:16.981Z,36480
2017-05-30T06:29:18.707Z,34336
2017-05-30T06:30:20.384Z,37920
2017-05-30T06:31:22.035Z,35808
2017-05-30T06:32:23.724Z,38144
2017-05-30T06:33:25.399Z,40768
2017-05-30T06:34:27.101Z,42720
2017-05-30T06:35:28.992Z,43584
2017-05-30T06:36:30.712Z,41856
2017-05-30T06:37:32.438Z,39424
2017-05-30T06:38:34.145Z,40704
2017-05-30T06:39:35.823Z,42176
2017-05-30T06:40:37.586Z,45216
2017-05-30T06:41:39.328Z,49792
2017-05-30T06:42:41.151Z,49600
2017-05-30T06:43:42.898Z,49056
2017-05-30T06:44:44.585Z,49440
2017-05-30T06:45:46.280Z,49632
2017-05-30T06:46:47.990Z,48800
2017-05-30T06:47:49.742Z,50176
2017-05-30T06:48:51.483Z,48256
2017-05-30T06:49:53.163Z,48896
2017-05-30T06:50:54.867Z,48640
2017-05-30T06:51:56.604Z,44544
2017-05-30T06:52:58.375Z,29024
2017-05-30T06:54:00.316Z,20384
2017-05-30T06:55:02.037Z,17492
2017-05-30T06:56:03.712Z,21856
2017-05-30T06:57:06.411Z,15344
2017-05-30T06:58:08.171Z,12584
2017-05-30T06:59:09.826Z,16424
2017-05-30T07:00:11.508Z,10888
2017-05-30T07:01:52.754Z,10108
2017-05-30T07:03:34.382Z,14040
2017-05-30T07:04:36.072Z,10136
2017-05-30T07:05:37.803Z,10904
2017-05-30T07:06:39.555Z,11848
2017-05-30T07:07:41.233Z,12360
2017-05-30T07:08:43.044Z,12844
2017-05-30T07:09:44.819Z,13188
2017-05-30T07:10:46.608Z,13780
2017-05-30T07:11:48.377Z,13652
2017-05-30T07:12:50.113Z,13912
2017-05-30T07:13:51.949Z,13388
2017-05-30T07:14:53.603Z,12448
2017-05-30T07:15:55.296Z,11432
2017-05-30T07:16:57.000Z,10780
2017-05-30T07:17:58.667Z,11112
2017-05-30T07:19:00.435Z,12360
2017-05-30T07:20:02.143Z,12080
2017-05-30T07:21:03.826Z,11816
2017-05-30T07:22:05.476Z,12076
2017-05-30T07:23:07.223Z,12180
2017-05-30T07:24:09.126Z,11804
2017-05-30T07:25:10.842Z,11860
2017-05-30T07:26:13.358Z,13124
2017-05-30T07:27:15.031Z,15572
2017-05-30T07:28:16.691Z,19648
2017-05-30T07:29:18.906Z,28032
2017-05-30T07:30:20.872Z,27904
2017-05-30T07:31:24.661Z,20864
2017-05-30T07:32:26.334Z,16536
2017-05-30T07:33:28.032Z,15168
2017-05-30T07:34:29.727Z,14344
2017-05-30T07:35:31.523Z,14312
2017-05-30T07:36:33.231Z,15856
2017-05-30T07:37:35.967Z,20128
2017-05-30T07:38:37.600Z,21888
2017-05-30T07:39:39.290Z,29504
2017-05-30T07:40:40.927Z,23552
2017-05-30T07:41:42.628Z,21600
2017-05-30T07:42:44.292Z,19264
2017-05-30T07:43:45.923Z,19904
2017-05-30T07:44:47.601Z,39904
2017-05-30T07:45:49.311Z,58976
2017-05-30T07:46:51.048Z,52128
2017-05-30T07:47:52.745Z,52544
2017-05-30T07:48:54.448Z,28896
2017-05-30T07:49:56.152Z,49696
2017-05-30T07:50:57.846Z,54112
2017-05-30T07:51:59.590Z,62208
2017-05-30T07:53:01.243Z,59328
2017-05-30T07:54:02.908Z,57632
2017-05-30T07:55:04.678Z,64544
2017-05-30T07:56:06.340Z,71456
2017-05-30T07:57:08.088Z,27168
2017-05-30T07:58:09.782Z,23264
2017-05-30T07:59:11.523Z,58240
2017-05-30T08:00:13.241Z,50400
2017-05-30T08:01:14.893Z,26944
2017-05-30T08:02:16.580Z,61472
2017-05-30T08:03:18.269Z,70816
2017-05-30T08:04:20.013Z,68800
2017-05-30T08:05:21.710Z,67520
2017-05-30T08:06:23.400Z,69984
2017-05-30T08:07:25.172Z,70560
2017-05-30T08:08:26.813Z,70240
2017-05-30T08:09:28.444Z,72416
2017-05-30T08:10:30.069Z,69856
2017-05-30T08:11:31.768Z,74976
2017-05-30T08:12:33.438Z,75104
2017-05-30T08:14:14.702Z,80960
2017-05-30T08:15:55.885Z,81472
2017-05-30T08:16:57.569Z,56416
2017-05-30T08:17:59.276Z,80288
2017-05-30T08:19:00.967Z,76384
2017-05-30T08:20:02.698Z,75872
2017-05-30T08:21:04.415Z,64192
2017-05-30T08:22:06.092Z,68960
2017-05-30T08:23:07.865Z,30400
2017-05-30T08:24:09.580Z,77792
2017-05-30T08:25:11.381Z,81536
2017-05-30T08:26:13.120Z,70912
2017-05-30T08:27:14.828Z,76576
2017-05-30T08:28:16.500Z,77120
2017-05-30T08:29:18.196Z,73664
2017-05-30T08:30:19.964Z,77088
2017-05-30T08:31:21.665Z,81536
2017-05-30T08:32:23.406Z,84032
2017-05-30T08:33:25.114Z,84512
2017-05-30T08:34:26.791Z,85280
2017-05-30T08:35:28.518Z,78336
2017-05-30T08:36:31.059Z,73568
2017-05-30T08:37:32.842Z,74112
2017-05-30T08:38:34.552Z,76672
2017-05-30T08:39:36.289Z,72960
2017-05-30T08:40:38.008Z,72448
2017-05-30T08:41:39.744Z,70848
2017-05-30T08:42:41.509Z,62464
2017-05-30T08:43:43.254Z,46208
2017-05-30T08:44:45.018Z,62688
2017-05-30T08:45:46.668Z,44672
2017-05-30T08:46:48.354Z,36768
2017-05-30T08:47:50.184Z,32992
2017-05-30T08:48:51.946Z,52384
2017-05-30T08:49:53.658Z,81568
2017-05-30T08:50:55.331Z,53344
2017-05-30T08:51:57.062Z,88416
2017-05-30T08:52:58.881Z,83456
2017-05-30T08:54:00.577Z,75232
2017-05-30T08:55:02.535Z,77504
2017-05-30T08:56:04.233Z,33824
2017-05-30T08:57:05.898Z,77728
2017-05-30T08:58:07.692Z,79264
2017-05-30T08:59:09.401Z,81408
2017-05-30T09:00:11.165Z,77312
2017-05-30T09:01:12.847Z,82944
2017-05-30T09:02:14.528Z,83712
2017-05-30T09:03:16.150Z,82752
2017-05-30T09:04:18.012Z,79232
2017-05-30T09:05:19.746Z,56864
2017-05-30T09:06:21.452Z,81440
2017-05-30T09:07:23.221Z,81280
2017-05-30T09:08:24.877Z,75456
2017-05-30T09:09:26.631Z,33728
2017-05-30T09:10:28.326Z,83584
2017-05-30T09:11:30.043Z,15188
2017-05-30T09:12:32.459Z,67872
2017-05-30T09:13:34.128Z,21184
2017-05-30T09:14:35.867Z,68928
2017-05-30T09:15:37.533Z,16776
2017-05-30T09:16:39.208Z,79008
2017-05-30T09:17:40.839Z,42496
2017-05-30T09:18:42.497Z,65184
2017-05-30T09:19:44.185Z,63328
2017-05-30T09:20:45.833Z,55520
2017-05-30T09:21:47.522Z,66368
2017-05-30T09:22:49.196Z,24416
2017-05-30T09:23:50.925Z,15584
2017-05-30T09:25:33.537Z,16244
2017-05-30T09:26:35.235Z,12440
2017-05-30T09:27:36.938Z,68384
2017-05-30T09:28:38.563Z,13936
2017-05-30T09:29:40.181Z,11072
2017-05-30T09:30:41.912Z,53792
2017-05-30T09:31:43.592Z,16944
2017-05-30T09:32:45.278Z,14112
2017-05-30T09:33:46.941Z,12872
2017-05-30T09:34:48.582Z,14624
2017-05-30T09:35:50.322Z,48480
2017-05-30T09:36:52.060Z,25120
2017-05-30T09:37:53.964Z,45056
2017-05-30T09:38:55.716Z,19744
2017-05-30T09:39:57.508Z,14948
2017-05-30T09:40:59.276Z,10928
2017-05-30T09:42:00.998Z,19712
2017-05-30T09:43:02.722Z,21312
2017-05-30T09:44:04.471Z,23040
2017-05-30T09:45:06.255Z,20384
2017-05-30T09:46:08.003Z,21248
2017-05-30T09:47:09.726Z,16328
2017-05-30T09:48:11.440Z,15264
2017-05-30T09:49:13.151Z,20992
2017-05-30T09:50:14.949Z,20160
2017-05-30T09:51:17.273Z,19520
2017-05-30T09:52:18.997Z,21344
2017-05-30T09:53:20.642Z,17076
2017-05-30T09:54:22.379Z,14904
2017-05-30T09:55:24.095Z,19256
2017-05-30T09:56:25.740Z,15368
2017-05-30T09:57:27.473Z,19616
2017-05-30T09:58:29.147Z,14248
2017-05-30T09:59:30.796Z,13484
2017-05-30T10:00:32.539Z,13916
2017-05-30T10:01:34.170Z,12864
2017-05-30T10:02:35.811Z,11712
2017-05-30T10:03:37.478Z,15540
2017-05-30T10:04:39.192Z,18000
2017-05-30T10:05:40.940Z,19080
2017-05-30T10:06:42.712Z,17464
2017-05-30T10:07:44.451Z,18024
2017-05-30T10:08:46.360Z,21376
2017-05-30T10:09:48.117Z,17024
2017-05-30T10:10:49.817Z,16360
2017-05-30T10:11:51.495Z,18124
2017-05-30T10:12:53.194Z,14028
2017-05-30T10:13:54.904Z,11984
2017-05-30T10:14:56.692Z,14552
2017-05-30T10:15:58.396Z,16292
2017-05-30T10:17:00.126Z,17600
2017-05-30T10:18:01.814Z,18392
2017-05-30T10:19:03.514Z,16200
2017-05-30T10:20:05.236Z,12344
2017-05-30T10:21:06.990Z,10452
2017-05-30T10:22:08.711Z,8848
2017-05-30T10:23:10.420Z,7768
2017-05-30T10:24:12.125Z,7240
2017-05-30T10:25:13.853Z,7092
2017-05-30T10:26:15.520Z,6052
2017-05-30T10:27:17.249Z,5300
2017-05-30T10:28:18.940Z,4928
2017-05-30T10:29:20.621Z,4960
2017-05-30T10:30:22.313Z,8316
2017-05-30T10:31:24.026Z,13952
2017-05-30T10:32:25.691Z,15976
2017-05-30T10:33:27.376Z,17232
2017-05-30T10:34:29.020Z,15020
2017-05-30T10:35:30.758Z,10632
2017-05-30T10:36:32.468Z,7616
2017-05-30T10:37:34.116Z,7704
2017-05-30T10:38:36.579Z,11552
2017-05-30T10:39:38.281Z,17488
2017-05-30T10:40:39.971Z,16396
2017-05-30T10:41:41.668Z,16168
2017-05-30T10:42:43.331Z,16152
2017-05-30T10:43:45.063Z,15864
2017-05-30T10:44:46.754Z,15040
2017-05-30T10:45:48.371Z,14284
2017-05-30T10:46:50.100Z,13652
2017-05-30T10:47:51.752Z,12964
2017-05-30T10:48:53.428Z,12652
2017-05-30T10:49:55.341Z,12552
2017-05-30T10:50:57.249Z,13140
2017-05-30T10:51:58.981Z,13472
2017-05-30T10:53:00.625Z,13088
2017-05-30T10:54:02.275Z,13196
2017-05-30T10:55:03.917Z,13624
2017-05-30T10:56:05.640Z,13588
2017-05-30T10:57:07.420Z,13972
2017-05-30T10:58:09.132Z,13808
2017-05-30T10:59:10.762Z,13528
2017-05-30T11:00:12.448Z,14400
2017-05-30T11:01:14.081Z,14576
2017-05-30T11:02:15.914Z,14288
2017-05-30T11:03:17.599Z,14312
2017-05-30T11:04:19.282Z,14360
2017-05-30T11:05:21.788Z,14344
2017-05-30T11:06:23.467Z,13896
2017-05-30T11:07:25.199Z,11236
2017-05-30T11:08:26.839Z,10684
2017-05-30T11:09:28.473Z,11516
2017-05-30T11:10:30.104Z,12084
2017-05-30T11:11:31.787Z,13628
2017-05-30T11:12:33.488Z,15712
2017-05-30T11:13:35.193Z,17364
2017-05-30T11:14:36.918Z,17672
2017-05-30T11:15:38.651Z,17452
2017-05-30T11:16:40.284Z,16124
2017-05-30T11:17:41.959Z,15132
2017-05-30T11:18:43.636Z,13748
2017-05-30T11:19:45.302Z,12140
2017-05-30T11:20:47.034Z,12608
2017-05-30T11:21:48.668Z,12248
2017-05-30T11:22:50.339Z,11104
2017-05-30T11:23:52.067Z,10272
2017-05-30T11:24:53.712Z,11028
2017-05-30T11:25:55.329Z,11108
2017-05-30T11:26:57.052Z,9324
2017-05-30T11:27:58.730Z,8080
2017-05-30T11:29:00.458Z,7684
2017-05-30T11:30:02.116Z,7236
2017-05-30T11:31:04.123Z,6712
2017-05-30T11:32:05.783Z,6900
2017-05-30T11:33:07.499Z,6848
2017-05-30T11:34:09.273Z,6528
2017-05-30T11:35:10.989Z,6212
2017-05-30T11:36:12.642Z,5952
2017-05-30T11:37:14.322Z,5720
2017-05-30T11:38:16.016Z,5596
2017-05-30T11:39:17.743Z,5600
2017-05-30T11:40:19.436Z,5584
2017-05-30T11:41:21.065Z,5488
2017-05-30T11:42:23.019Z,5352
2017-05-30T11:43:25.522Z,5268
2017-05-30T11:44:27.286Z,5420
2017-05-30T11:45:29.028Z,6004
2017-05-30T11:46:30.732Z,8932
2017-05-30T11:49:41.649Z,11488
2017-05-30T11:50:43.329Z,10572
2017-05-30T11:51:44.965Z,9936
2017-05-30T11:52:46.653Z,9508
2017-05-30T11:53:48.311Z,9216
2017-05-30T11:54:49.972Z,8984
2017-05-30T11:55:51.628Z,9816
2017-05-30T11:56:53.266Z,10448
2017-05-30T11:57:54.924Z,11256
2017-05-30T11:58:56.575Z,11688
2017-05-30T11:59:58.285Z,11372
2017-05-30T12:01:00.074Z,10560
2017-05-30T12:02:01.781Z,9216
2017-05-30T12:03:03.442Z,7692
2017-05-30T12:04:05.101Z,6304
2017-05-30T12:05:06.803Z,5412
2017-05-30T12:06:08.531Z,4700
2017-05-30T12:07:10.197Z,4208
2017-05-30T12:08:11.857Z,3808
2017-05-30T12:09:13.507Z,3572
2017-05-30T12:10:15.194Z,3432
2017-05-30T12:11:16.958Z,3392
2017-05-30T12:12:18.661Z,3452
2017-05-30T12:13:20.314Z,3384
2017-05-30T12:14:21.968Z,3452
2017-05-30T12:15:23.651Z,3340
2017-05-30T12:16:25.404Z,3424
2017-05-30T12:17:28.013Z,3368
2017-05-30T12:18:29.723Z,3368
2017-05-30T12:19:31.371Z,3368
2017-05-30T12:20:33.033Z,3280
2017-05-30T12:21:34.687Z,3092
2017-05-30T12:22:36.309Z,3032
2017-05-30T12:23:38.150Z,3180
2017-05-30T12:24:39.806Z,3408
2017-05-30T12:25:41.520Z,3836
2017-05-30T12:26:43.194Z,4456
2017-05-30T12:27:44.891Z,5112
2017-05-30T12:28:46.575Z,5532
2017-05-30T12:29:48.355Z,6152
2017-05-30T12:30:50.023Z,6888
2017-05-30T12:31:51.706Z,7912
2017-05-30T12:32:53.400Z,8124
2017-05-30T12:33:55.085Z,7360
2017-05-30T12:34:56.874Z,5532
2017-05-30T12:35:58.660Z,4456
2017-05-30T12:37:00.396Z,4376
2017-05-30T12:38:02.189Z,4204
2017-05-30T12:39:03.905Z,4408
2017-05-30T12:40:05.670Z,5656
2017-05-30T12:41:07.359Z,8376
2017-05-30T12:42:09.112Z,9716
2017-05-30T12:43:10.759Z,10196
2017-05-30T12:44:12.526Z,10428
2017-05-30T12:45:14.744Z,10248
2017-05-30T12:46:16.458Z,9292
2017-05-30T12:47:18.155Z,8200
2017-05-30T12:48:19.953Z,7812
2017-05-30T12:49:21.657Z,8104
2017-05-30T12:50:23.319Z,9312
2017-05-30T12:51:25.008Z,10900
2017-05-30T12:52:26.775Z,11492
2017-05-30T12:53:28.687Z,10936
2017-05-30T12:54:30.456Z,10552
2017-05-30T12:55:32.147Z,9988
2017-05-30T12:56:33.819Z,9456
2017-05-30T12:57:35.455Z,8464
2017-05-30T12:58:37.202Z,7408
2017-05-30T12:59:38.925Z,7268
2017-05-30T13:00:40.574Z,6724
2017-05-30T13:01:42.206Z,5816
2017-05-30T13:02:43.922Z,5004
2017-05-30T13:03:45.635Z,4940
2017-05-30T13:04:47.357Z,5148
2017-05-30T13:05:49.151Z,4720
2017-05-30T13:06:50.898Z,4248
2017-05-30T13:07:52.657Z,3872
2017-05-30T13:08:54.356Z,3568
2017-05-30T13:09:56.077Z,3368
2017-05-30T13:10:57.828Z,3288
2017-05-30T13:12:00.294Z,3376
2017-05-30T13:13:01.957Z,3592
2017-05-30T13:14:03.713Z,4064
2017-05-30T13:15:06.142Z,4632
2017-05-30T13:16:07.800Z,5580
2017-05-30T13:17:09.557Z,6920
2017-05-30T13:18:11.277Z,7552
2017-05-30T13:19:12.971Z,7176
2017-05-30T13:20:14.644Z,6500
2017-05-30T13:21:16.310Z,6136
2017-05-30T13:22:18.052Z,6128
2017-05-30T13:23:19.727Z,6212
2017-05-30T13:24:21.391Z,6484
2017-05-30T13:25:23.057Z,6756
2017-05-30T13:26:24.742Z,6972
2017-05-30T13:27:26.456Z,7224
2017-05-30T13:28:28.085Z,7296
2017-05-30T13:29:30.271Z,6908
2017-05-30T13:30:31.981Z,6684
2017-05-30T13:31:33.637Z,6596
2017-05-30T13:32:35.319Z,6460
2017-05-30T13:33:36.998Z,6284
2017-05-30T13:34:38.700Z,5948
2017-05-30T13:35:40.368Z,5628
2017-05-30T13:36:42.096Z,5508
2017-05-30T13:37:43.900Z,5708
2017-05-30T13:38:45.511Z,6276
2017-05-30T13:39:47.173Z,7068
2017-05-30T13:40:49.919Z,8008
2017-05-30T13:41:51.665Z,9084
2017-05-30T13:42:53.341Z,10612
2017-05-30T13:43:55.027Z,11520
2017-05-30T13:44:56.647Z,11976
2017-05-30T13:45:58.323Z,11284
2017-05-30T13:47:00.058Z,11580
2017-05-30T13:48:01.703Z,11460
2017-05-30T13:49:03.340Z,10240
2017-05-30T13:50:05.044Z,9604
2017-05-30T13:51:06.631Z,9528
2017-05-30T13:52:08.319Z,10032
2017-05-30T13:53:09.980Z,10448
2017-05-30T13:54:11.621Z,10872
2017-05-30T13:55:13.300Z,11288
2017-05-30T13:56:14.988Z,11680
2017-05-30T13:57:16.723Z,11720
2017-05-30T13:58:18.456Z,11444
2017-05-30T13:59:20.123Z,10988
2017-05-30T14:00:21.795Z,9804
2017-05-30T14:01:23.487Z,9396
2017-05-30T14:02:25.183Z,9364
2017-05-30T14:03:26.906Z,9292
2017-05-30T14:04:28.571Z,9256
2017-05-30T14:05:30.276Z,9668